27 mai 2022

Temps Code Temps Temp. Vue Base cloud Vent METAR/SPECI
1:50 pm
V
70 °F 6¼ mi+ - 280° 280° 8 kt METAR EDNY 271150Z 28008KT 230V330 CAVOK 21/13 Q1022
1:20 pm
V
68 °F 6¼ mi+ - 270° 270° 8 kt METAR EDNY 271120Z 27008KT 220V330 CAVOK 20/13 Q1022
12:50 pm
V
68 °F 6¼ mi+ - 270° 270° 8 kt METAR EDNY 271050Z 27008KT 160V330 CAVOK 20/13 Q1022
12:20 pm
V
68 °F 6¼ mi+ - 260° 260° 9 kt METAR EDNY 271020Z 26009KT 230V310 CAVOK 20/12 Q1023
11:50 am
V
66 °F 6¼ mi+ - 270° 270° 9 kt METAR EDNY 270950Z 27009KT 220V330 CAVOK 19/12 Q1023
11:20 am
V
66 °F 6¼ mi+ - 260° 260° 11 kt METAR EDNY 270920Z 26011KT 210V300 CAVOK 19/11 Q1023
10:50 am
V
64 °F 6¼ mi+ - 240° 240° 11 kt METAR EDNY 270850Z 24011KT 220V280 CAVOK 18/11 Q1023
10:20 am
V
64 °F 6¼ mi+ - 260° 260° 10 kt METAR EDNY 270820Z 26010KT 220V300 CAVOK 18/11 Q1023
9:50 am
V
63 °F 6¼ mi+ - 240° 240° 10 kt METAR EDNY 270750Z 24010KT CAVOK 17/11 Q1023
9:20 am
V
63 °F 6¼ mi+ - 230° 230° 8 kt METAR EDNY 270720Z 23008KT 200V270 9999 FEW046 17/11 Q1024
8:50 am
V
61 °F 6¼ mi+ - 230° 230° 7 kt METAR EDNY 270650Z 23007KT 9999 FEW046 16/11 Q1024
8:20 am
V
61 °F 6¼ mi+ - 220° 220° 7 kt METAR EDNY 270620Z 22007KT 9999 SCT046 16/11 Q1024
7:50 am
V
59 °F 6¼ mi+ - Var 000° 0 kt METAR EDNY 270550Z 00000KT 9999 FEW047 15/11 Q1024
7:20 am
V
55 °F 6¼ mi+ - Var Var 1 kt METAR EDNY 270520Z VRB01KT 9999 FEW042 13/11 Q1024
6:50 am
V
52 °F 6¼ mi+ 4.300 ft 080° 080° 2 kt METAR EDNY 270450Z 08002KT 9999 OVC043 11/11 Q1024
6:20 am
V
50 °F 6¼ mi+ 4.500 ft Var Var 1 kt METAR EDNY 270420Z VRB01KT 9999 BKN045 10/10 Q1024
5:50 am
V
50 °F 6¼ mi+ 5.200 ft 070° 070° 2 kt METAR EDNY 270350Z 07002KT 9999 SCT046 BKN052 10/10 Q1024
5:20 am
V
50 °F 6¼ mi+ 4.600 ft Var 000° 0 kt METAR EDNY 270320Z AUTO 00000KT 9999 BKN046/// BKN052/// 10/10 Q1024
4:50 am
V
50 °F 6¼ mi+ 5.100 ft Var 000° 0 kt METAR EDNY 270250Z AUTO 00000KT 9999 SCT044/// BKN051/// 10/09 Q1024
4:20 am
V
48 °F 6¼ mi+ - Var Var 1 kt METAR EDNY 270220Z AUTO VRB01KT 9999 FEW049/// 09/09 Q1023
3:50 am
V
48 °F 6¼ mi+ - 080° 080° 3 kt METAR EDNY 270150Z AUTO 08003KT 9999 FEW049/// 09/09 Q1023
3:20 am
V
50 °F 6¼ mi+ - Var Var 2 kt METAR EDNY 270120Z AUTO VRB02KT 9999 NCD 10/10 Q1024
2:50 am
V
52 °F 6¼ mi+ - Var Var 2 kt METAR EDNY 270050Z AUTO VRB02KT 9999 NCD 11/10 Q1024
2:20 am
V
52 °F 6¼ mi+ - 090° 090° 2 kt METAR EDNY 270020Z AUTO 09002KT 9999 NCD 11/10 Q1024
1:50 am
V
52 °F 6¼ mi+ - Var 000° 0 kt METAR EDNY 262350Z AUTO 00000KT 9999 NCD 11/10 Q1024
1:20 am
V
54 °F 6¼ mi+ - Var Var 2 kt METAR EDNY 262320Z AUTO VRB02KT 9999 NCD 12/10 Q1024
12:50 am
V
54 °F 6¼ mi+ - Var Var 2 kt METAR EDNY 262250Z AUTO VRB02KT 9999 FEW061/// 12/11 Q1025
12:20 am
V
54 °F 6¼ mi+ - Var 000° 0 kt METAR EDNY 262220Z AUTO 00000KT 9999 FEW055/// 12/10 Q1025

26 mai 2022

Temps Code Temps Temp. Vue Base cloud Vent METAR/SPECI
11:50 pm
V
55 °F 6¼ mi+ - Var Var 2 kt METAR EDNY 262150Z AUTO VRB02KT 9999 FEW055/// 13/10 Q1024
11:20 pm
V
57 °F 6¼ mi+ - 070° 070° 2 kt METAR EDNY 262120Z AUTO 07002KT 9999 NCD 14/11 Q1024
10:50 pm
V
57 °F 6¼ mi+ - Var Var 1 kt METAR EDNY 262050Z AUTO VRB01KT 9999 NCD 14/11 Q1024
10:20 pm
V
61 °F 6¼ mi+ - 270° 270° 3 kt METAR EDNY 262020Z AUTO 27003KT 9999 NCD 16/11 Q1024
9:50 pm
V
61 °F 6¼ mi+ - Var Var 1 kt METAR EDNY 261950Z AUTO VRB01KT 9999 NCD 16/11 Q1024
9:20 pm
V
64 °F 6¼ mi+ - 250° 250° 3 kt METAR EDNY 261920Z AUTO 25003KT 9999 NCD 18/10 Q1023
8:50 pm
V
66 °F 6¼ mi+ - 250° 250° 5 kt METAR EDNY 261850Z AUTO 25005KT 9999 NCD 19/09 Q1023
8:20 pm
V
68 °F 6¼ mi+ - 260° 260° 5 kt METAR EDNY 261820Z AUTO 26005KT 230V290 9999 NCD 20/09 Q1023
7:50 pm
V
70 °F 6¼ mi+ - 270° 270° 4 kt METAR EDNY 261750Z 27004KT 220V320 CAVOK 21/09 Q1023
7:20 pm
V
70 °F 6¼ mi+ - 260° 260° 7 kt METAR EDNY 261720Z 26007KT 240V310 CAVOK 21/09 Q1023
6:50 pm
V
72 °F 6¼ mi+ - 270° 270° 5 kt METAR EDNY 261650Z 27005KT 220V330 CAVOK 22/09 Q1023
6:20 pm
V
72 °F 6¼ mi+ - 290° 290° 6 kt METAR EDNY 261620Z 29006KT 210V020 CAVOK 22/09 Q1023
5:50 pm
V
72 °F 6¼ mi+ - Var Var 6 kt METAR EDNY 261550Z VRB06KT CAVOK 22/09 Q1023
5:20 pm
V
72 °F 6¼ mi+ - 280° 280° 6 kt METAR EDNY 261520Z 28006KT 240V340 9999 FEW059 22/08 Q1023
4:50 pm
V
72 °F 6¼ mi+ - 290° 290° 6 kt METAR EDNY 261450Z 29006KT 230V010 9999 FEW060 22/08 Q1023
4:20 pm
V
70 °F 6¼ mi+ - 300° 300° 7 kt METAR EDNY 261420Z 30007KT 210V340 CAVOK 21/09 Q1024
3:50 pm
V
70 °F 6¼ mi+ - 280° 280° 6 - 16 kt METAR EDNY 261350Z 28006G16KT 240V340 9999 FEW057 21/09 Q1024
3:20 pm
V
72 °F 6¼ mi+ - 270° 270° 5 - 15 kt METAR EDNY 261320Z 27005G15KT 190V340 CAVOK 22/10 Q1024
2:50 pm
V
70 °F 6¼ mi+ - 230° 230° 9 kt METAR EDNY 261250Z 23009KT 190V260 CAVOK 21/10 Q1024
2:20 pm
V
68 °F 6¼ mi+ - 250° 250° 7 kt METAR EDNY 261220Z 25007KT 210V300 9999 FEW051 20/09 Q1024
1:50 pm
V
68 °F 6¼ mi+ - 270° 270° 6 kt METAR EDNY 261150Z 27006KT 190V330 9999 FEW051 20/09 Q1024
1:20 pm
V
68 °F 6¼ mi+ - 240° 240° 8 kt METAR EDNY 261120Z 24008KT 210V270 CAVOK 20/10 Q1025
12:50 pm
V
66 °F 6¼ mi+ - 260° 260° 6 kt METAR EDNY 261050Z 26006KT 220V330 CAVOK 19/09 Q1025
12:20 pm
V
66 °F 6¼ mi+ - 260° 260° 6 kt METAR EDNY 261020Z 26006KT 230V350 9999 FEW055 19/08 Q1025
11:50 am
V
66 °F 6¼ mi+ - 240° 240° 5 kt METAR EDNY 260950Z 24005KT 9999 FEW056 19/10 Q1025
11:20 am
V
64 °F 6¼ mi+ - 230° 230° 4 kt METAR EDNY 260920Z 23004KT 190V300 CAVOK 18/09 Q1025
10:50 am
V
63 °F 6¼ mi+ - 210° 210° 5 kt METAR EDNY 260850Z 21005KT CAVOK 17/11 Q1025
10:20 am
V
63 °F 6¼ mi+ - 240° 240° 4 kt METAR EDNY 260820Z 24004KT CAVOK 17/10 Q1025
9:50 am
V
63 °F 6¼ mi+ - 280° 280° 3 kt METAR EDNY 260750Z 28003KT CAVOK 17/10 Q1024
9:20 am
V
59 °F 6¼ mi+ 6.000 ft 240° 240° 3 kt METAR EDNY 260720Z 24003KT 9999 BKN060 15/09 Q1024
8:50 am
V
59 °F 6¼ mi+ 5.800 ft 250° 250° 3 kt METAR EDNY 260650Z 25003KT 190V350 9999 BKN058 15/09 Q1024
8:20 am
V
55 °F 6¼ mi+ 5.800 ft Var Var 1 kt METAR EDNY 260620Z VRB01KT 9999 BKN058 13/12 Q1024
7:50 am
V
54 °F 6¼ mi+ 5.800 ft Var Var 2 kt METAR EDNY 260550Z VRB02KT 9999 BKN058 12/11 Q1024
7:20 am
V
54 °F 6¼ mi+ - Var 000° 0 kt METAR EDNY 260520Z 00000KT CAVOK 12/11 Q1024
6:50 am
V
52 °F 6¼ mi+ - 070° 070° 3 kt METAR EDNY 260450Z 07003KT CAVOK 11/11 Q1023
6:20 am
V
50 °F 6¼ mi+ - Var 000° 0 kt METAR EDNY 260420Z 00000KT CAVOK 10/10 Q1023
5:50 am
V
50 °F 6¼ mi+ - 040° 040° 2 kt METAR EDNY 260350Z 04002KT CAVOK 10/09 Q1023
5:20 am
V
50 °F 6¼ mi+ 6.300 ft 090° 090° 3 kt METAR EDNY 260320Z AUTO 09003KT 050V110 9999 BKN063/// 10/10 Q1023
4:50 am
V
50 °F 6¼ mi+ - Var Var 1 kt METAR EDNY 260250Z AUTO VRB01KT 9999 FEW063/// 10/10 Q1022
4:20 am
V
52 °F 6¼ mi+ 6.500 ft 050° 050° 3 kt METAR EDNY 260220Z AUTO 05003KT 320V080 9999 BKN065/// 11/10 Q1022
3:50 am
V
52 °F 6¼ mi+ 6.300 ft Var Var 1 kt METAR EDNY 260150Z AUTO VRB01KT 9999 BKN063/// 11/11 Q1023
3:20 am
V
52 °F 6¼ mi+ 6.100 ft 090° 090° 3 kt METAR EDNY 260120Z AUTO 09003KT 9999 BKN061/// 11/10 Q1023
2:50 am
V
54 °F 6¼ mi+ 8.700 ft Var 000° 0 kt METAR EDNY 260050Z AUTO 00000KT 9999 SCT062/// BKN087/// 12/11 Q1022
2:20 am
V
54 °F 6¼ mi+ 8.600 ft 070° 070° 2 kt METAR EDNY 260020Z AUTO 07002KT 9999 SCT063/// SCT073/// OVC086/// 12/11 Q1022
1:50 am
V
54 °F 6¼ mi+ 8.300 ft Var Var 2 kt METAR EDNY 252350Z AUTO VRB02KT 9999 FEW064/// OVC083/// 12/11 Q1022
1:20 am
V
54 °F 6¼ mi+ 6.500 ft 080° 080° 3 kt METAR EDNY 252320Z AUTO 08003KT 9999 BKN065/// OVC083/// 12/10 Q1022
12:50 am
V
54 °F 6¼ mi+ 8.700 ft Var 000° 0 kt METAR EDNY 252250Z AUTO 00000KT 9999 FEW065/// OVC087/// 12/11 Q1022
12:20 am
V
54 °F 6¼ mi+ 8.700 ft Var 000° 0 kt METAR EDNY 252220Z AUTO 00000KT 9999 FEW070/// BKN087/// 12/10 Q1022

25 mai 2022

Temps Code Temps Temp. Vue Base cloud Vent METAR/SPECI
11:50 pm
V
54 °F 6¼ mi+ 8.700 ft Var Var 1 kt METAR EDNY 252150Z AUTO VRB01KT 9999 FEW067/// BKN087/// 12/09 Q1021
11:20 pm
V
54 °F 6¼ mi+ - Var 000° 0 kt METAR EDNY 252120Z AUTO 00000KT 9999 SCT088/// 12/10 Q1021
10:50 pm
V
54 °F 6¼ mi+ - Var Var 1 kt METAR EDNY 252050Z AUTO VRB01KT 9999 NCD 12/09 Q1021
10:20 pm
V
55 °F 6¼ mi+ - Var Var 1 kt METAR EDNY 252020Z VRB01KT CAVOK 13/10 Q1020
9:50 pm
V
59 °F 6¼ mi+ - 080° 080° 3 kt METAR EDNY 251950Z 08003KT CAVOK 15/10 Q1020
9:20 pm
V
59 °F 6¼ mi+ - Var Var 2 kt METAR EDNY 251920Z VRB02KT CAVOK 15/10 Q1020
8:50 pm
V
61 °F 6¼ mi+ - 200° 200° 3 kt METAR EDNY 251850Z 20003KT CAVOK 16/10 Q1019
8:20 pm
V
63 °F 6¼ mi+ - 210° 210° 3 kt METAR EDNY 251820Z 21003KT CAVOK 17/09 Q1019
7:50 pm
V
66 °F 6¼ mi+ - 210° 210° 3 kt METAR EDNY 251750Z 21003KT CAVOK 19/07 Q1019
7:20 pm
V
68 °F 6¼ mi+ - 210° 210° 4 kt METAR EDNY 251720Z 21004KT CAVOK 20/08 Q1018
6:50 pm
V
68 °F 6¼ mi+ - Var Var 3 kt METAR EDNY 251650Z VRB03KT CAVOK 20/07 Q1018
6:20 pm
V
68 °F 6¼ mi+ - Var Var 4 kt METAR EDNY 251620Z VRB04KT 9999 FEW052 20/08 Q1018
5:50 pm
V
66 °F 6¼ mi+ - 210° 210° 4 kt METAR EDNY 251550Z 21004KT 9999 FEW054 19/06 Q1018
5:20 pm
V
66 °F 6¼ mi+ - 230° 230° 5 kt METAR EDNY 251520Z 23005KT 9999 FEW054 19/07 Q1018
4:50 pm
V
66 °F 6¼ mi+ - 210° 210° 5 kt METAR EDNY 251450Z 21005KT 9999 FEW054 19/07 Q1018
4:20 pm
V
66 °F 6¼ mi+ - 220° 220° 6 kt METAR EDNY 251420Z 22006KT 9999 FEW052 19/09 Q1018
3:50 pm
V
66 °F 6¼ mi+ - Var Var 3 kt METAR EDNY 251350Z VRB03KT 9999 SCT052 19/10 Q1018
3:20 pm
V
66 °F 6¼ mi+ - Var Var 2 kt METAR EDNY 251320Z VRB02KT 9999 SCT054 19/08 Q1018
2:50 pm
V
64 °F 6¼ mi+ - Var Var 3 kt METAR EDNY 251250Z VRB03KT 9999 SCT054 18/09 Q1018
2:20 pm
V
63 °F 6¼ mi+ - Var Var 2 kt METAR EDNY 251220Z VRB02KT 9999 SCT056 17/11 Q1018
1:50 pm
V
61 °F 6¼ mi+ 5.700 ft 240° 240° 5 kt METAR EDNY 251150Z 24005KT 9999 BKN057 16/10 Q1019
Données plus anciennes

Télécharge notre application

Un accès facile à toute la météo aéronautique sur ton téléphone portable et ta tablette.
Avec de nombreuses fonctionnalités non disponibles sur le site Web, comme la prise en charge hors ligne et une liste personnelle d'aéroports.

Nous et des tiers suivons ton comportement sur Internet sur notre site Web à l'aide de cookies. Si tu continues, nous supposons que tu acceptes notre politique en matière de cookies. Apprendre plus